Time;durP1;ratioP1;P1;durP2;ratioP2;P2;SDS_P1;SDS_P2;PMS_P1;PMS_P2;Temp;Humidity;BMP_temperature;BMP_pressure;BME280_temperature;BME280_humidity;BME280_pressure;Samples;Min_cycle;Max_cycle;Signal;HPM_P1;HPM_P2
2021/10/01 00:00:37;;;;;;;4.27;2.80;;;10.30;99.90;;;;;;5140668;27;20454;-55
2021/10/01 00:03:08;;;;;;;6.33;2.67;;;10.40;99.90;;;;;;5119694;28;20434;-57
2021/10/01 00:05:39;;;;;;;6.60;2.47;;;10.30;99.90;;;;;;5119720;28;20430;-51
2021/10/01 00:08:11;;;;;;;6.60;3.10;;;10.30;99.90;;;;;;5119473;28;20495;-56
2021/10/01 00:10:43;;;;;;;5.27;2.80;;;10.30;99.90;;;;;;5108005;28;20461;-52
2021/10/01 00:13:12;;;;;;;3.00;2.23;;;10.30;99.90;;;;;;5099098;28;20559;-54
2021/10/01 00:15:44;;;;;;;7.37;3.20;;;10.30;99.90;;;;;;5099408;28;20495;-52
2021/10/01 00:18:16;;;;;;;4.33;2.53;;;10.30;99.90;;;;;;5109307;28;20456;-56
2021/10/01 00:20:46;;;;;;;3.50;2.47;;;10.30;99.90;;;;;;5119753;28;20462;-54
2021/10/01 00:23:17;;;;;;;5.30;2.90;;;10.30;99.90;;;;;;5119044;28;20882;-51
2021/10/01 00:25:46;;;;;;;6.00;2.57;;;10.30;99.90;;;;;;5119358;28;20459;-51
2021/10/01 00:28:15;;;;;;;3.97;2.57;;;10.30;99.90;;;;;;5119490;27;20498;-53
2021/10/01 00:30:46;;;;;;;3.70;2.83;;;10.30;99.90;;;;;;5119529;27;20463;-52
2021/10/01 00:33:16;;;;;;;7.37;2.57;;;10.30;99.90;;;;;;5119089;28;20459;-49
2021/10/01 00:35:45;;;;;;;5.50;2.37;;;10.40;99.90;;;;;;5119128;28;20466;-51
2021/10/01 00:38:14;;;;;;;4.50;2.50;;;10.40;99.90;;;;;;5119309;28;20461;-50
2021/10/01 00:40:43;;;;;;;6.40;2.30;;;10.30;99.90;;;;;;5117746;28;20460;-51
2021/10/01 00:43:14;;;;;;;7.10;2.80;;;10.30;99.90;;;;;;5118816;28;20459;-52
2021/10/01 00:45:43;;;;;;;5.80;2.83;;;10.30;99.90;;;;;;5119094;28;20489;-53
2021/10/01 00:48:12;;;;;;;6.63;3.30;;;10.30;99.90;;;;;;5118987;28;20912;-52
2021/10/01 00:50:43;;;;;;;3.93;2.20;;;10.30;99.90;;;;;;5119039;28;20872;-53
2021/10/01 00:53:12;;;;;;;4.60;2.57;;;10.30;99.90;;;;;;5118852;28;20466;-52
2021/10/01 00:55:43;;;;;;;4.60;2.67;;;10.20;99.90;;;;;;5118828;28;20893;-52
2021/10/01 00:58:12;;;;;;;3.40;2.50;;;10.20;99.90;;;;;;5118863;28;20455;-55
2021/10/01 01:00:51;;;;;;;4.23;2.80;;;10.20;99.90;;;;;;5119159;27;20744;-53
2021/10/01 01:03:20;;;;;;;7.57;3.57;;;10.20;99.90;;;;;;5139035;27;20462;-53
2021/10/01 01:06:07;;;;;;;5.37;2.70;;;10.20;99.90;;;;;;5139307;27;20466;-55
2021/10/01 01:08:49;;;;;;;4.63;2.43;;;10.20;99.90;;;;;;5139174;27;20967;-53
2021/10/01 01:11:28;;;;;;;4.77;3.00;;;10.20;99.90;;;;;;5138676;27;20455;-53
2021/10/01 01:14:04;;;;;;;7.60;2.77;;;10.20;99.90;;;;;;5139153;27;20483;-50
2021/10/01 01:16:40;;;;;;;4.17;2.30;;;10.20;99.90;;;;;;5138943;27;20475;-54
2021/10/01 01:19:13;;;;;;;4.43;2.70;;;10.20;99.90;;;;;;5138581;27;20465;-56
2021/10/01 01:22:00;;;;;;;4.17;2.37;;;10.20;99.90;;;;;;5138702;27;20739;-55
2021/10/01 01:24:47;;;;;;;3.57;2.10;;;10.20;99.90;;;;;;5139101;27;20471;-50
2021/10/01 01:27:25;;;;;;;4.20;2.20;;;10.20;99.90;;;;;;5138343;27;20772;-52
2021/10/01 01:30:04;;;;;;;4.33;2.50;;;10.20;99.90;;;;;;5138347;27;20458;-55
2021/10/01 01:32:37;;;;;;;3.57;1.97;;;10.10;99.90;;;;;;5138757;27;20566;-51
2021/10/01 01:35:10;;;;;;;2.97;2.23;;;10.10;99.90;;;;;;5138406;27;20527;-54
2021/10/01 01:37:42;;;;;;;6.13;2.60;;;10.10;99.90;;;;;;5138281;27;20461;-51
2021/10/01 01:40:16;;;;;;;3.63;2.17;;;10.10;99.90;;;;;;5138707;27;20458;-48
2021/10/01 01:42:44;;;;;;;4.50;2.60;;;10.10;99.90;;;;;;5138729;27;20462;-51
2021/10/01 01:45:14;;;;;;;3.77;2.60;;;10.10;99.90;;;;;;5137959;27;20454;-52
2021/10/01 01:47:43;;;;;;;3.53;2.40;;;10.10;99.90;;;;;;5138304;27;20575;-52
2021/10/01 01:50:11;;;;;;;5.03;2.10;;;10.10;99.90;;;;;;5138312;27;20546;-49
2021/10/01 01:52:41;;;;;;;4.10;2.40;;;10.00;99.90;;;;;;5137949;27;20489;-48
2021/10/01 01:55:12;;;;;;;4.27;2.60;;;10.10;99.90;;;;;;5137772;27;20458;-51
2021/10/01 01:57:42;;;;;;;5.60;2.20;;;10.00;99.90;;;;;;5138162;27;20458;-51
2021/10/01 02:00:10;;;;;;;3.20;2.17;;;10.00;99.90;;;;;;5138630;27;20458;-54
2021/10/01 02:02:39;;;;;;;8.10;2.47;;;10.00;99.90;;;;;;5137789;27;20490;-52
2021/10/01 02:05:09;;;;;;;8.03;2.67;;;10.10;99.90;;;;;;5137783;27;20458;-49
2021/10/01 02:07:40;;;;;;;3.37;2.10;;;10.00;99.90;;;;;;5138497;28;20487;-53
2021/10/01 02:10:09;;;;;;;4.83;3.80;;;10.00;99.90;;;;;;5130834;28;20460;-52
2021/10/01 02:12:36;;;;;;;3.73;2.00;;;10.00;99.90;;;;;;5117094;28;20826;-51
2021/10/01 02:15:04;;;;;;;4.57;2.27;;;10.10;99.90;;;;;;5117582;28;20480;-52
2021/10/01 02:17:34;;;;;;;6.03;2.20;;;10.10;99.90;;;;;;5117347;28;20484;-51
2021/10/01 02:20:03;;;;;;;4.50;1.90;;;10.10;99.90;;;;;;5117467;28;20532;-53
2021/10/01 02:22:32;;;;;;;2.97;2.67;;;10.10;99.90;;;;;;5117498;28;20460;-55
2021/10/01 02:24:59;;;;;;;3.50;2.50;;;10.10;99.90;;;;;;5117013;28;20459;-54
2021/10/01 02:27:35;;;;;;;5.90;2.67;;;10.10;99.90;;;;;;5117200;28;20487;-54
2021/10/01 02:30:07;;;;;;;6.03;2.60;;;10.10;99.90;;;;;;5117188;28;20459;-55
2021/10/01 02:32:36;;;;;;;3.53;2.53;;;10.10;99.90;;;;;;5117458;28;20538;-54
2021/10/01 02:35:05;;;;;;;3.00;1.90;;;10.00;99.90;;;;;;5116933;28;20466;-56
2021/10/01 02:37:34;;;;;;;6.30;2.60;;;10.00;99.90;;;;;;5131453;28;20458;-56
2021/10/01 02:40:01;;;;;;;3.53;2.20;;;10.00;99.90;;;;;;5137844;28;20905;-53
2021/10/01 02:42:29;;;;;;;8.00;2.27;;;10.00;99.90;;;;;;5137292;28;20462;-53
2021/10/01 02:44:58;;;;;;;6.60;2.10;;;10.00;99.90;;;;;;5137492;28;20458;-52
2021/10/01 02:47:29;;;;;;;5.10;2.30;;;10.00;99.90;;;;;;5137344;28;20486;-52
2021/10/01 02:49:57;;;;;;;4.53;2.50;;;10.00;99.90;;;;;;5137798;28;20463;-52
2021/10/01 02:52:29;;;;;;;3.23;2.70;;;10.00;99.90;;;;;;5138091;28;20507;-48
2021/10/01 02:55:06;;;;;;;4.00;2.10;;;10.00;99.90;;;;;;5138209;28;20455;-53
2021/10/01 02:57:40;;;;;;;3.10;2.30;;;10.00;99.90;;;;;;5137658;28;20501;-46
2021/10/01 03:00:09;;;;;;;6.73;2.40;;;9.90;99.90;;;;;;5137984;28;20490;-47
2021/10/01 03:02:38;;;;;;;2.83;2.40;;;9.90;99.90;;;;;;5137099;28;20487;-50
2021/10/01 03:05:06;;;;;;;6.00;2.20;;;9.90;99.90;;;;;;5140055;27;20462;-55
2021/10/01 03:07:35;;;;;;;6.03;2.50;;;9.90;99.90;;;;;;5141026;27;20539;-52
2021/10/01 03:10:11;;;;;;;8.13;2.20;;;9.80;99.90;;;;;;5141163;27;20455;-48
2021/10/01 03:12:40;;;;;;;4.53;2.23;;;9.90;99.90;;;;;;5140885;27;20458;-53
2021/10/01 03:15:11;;;;;;;4.70;2.47;;;9.80;99.90;;;;;;5141166;27;20515;-46
2021/10/01 03:17:40;;;;;;;3.60;2.13;;;9.80;99.90;;;;;;5140933;27;20504;-49
2021/10/01 03:20:11;;;;;;;4.40;2.30;;;9.80;99.90;;;;;;5141213;27;20511;-52
2021/10/01 03:22:40;;;;;;;7.33;2.47;;;9.80;99.90;;;;;;5141265;27;20800;-52
2021/10/01 03:25:11;;;;;;;3.03;2.07;;;9.80;99.90;;;;;;5140671;27;20458;-52
2021/10/01 03:27:39;;;;;;;4.77;2.47;;;9.80;99.90;;;;;;5140800;27;20494;-49
2021/10/01 03:30:08;;;;;;;5.37;2.43;;;9.80;99.90;;;;;;5140900;27;20462;-52
2021/10/01 03:32:36;;;;;;;7.50;2.97;;;9.80;99.90;;;;;;5140967;27;20462;-54
2021/10/01 03:35:05;;;;;;;5.00;2.40;;;9.80;99.90;;;;;;5140467;27;20970;-49
2021/10/01 03:37:34;;;;;;;4.47;2.30;;;9.80;99.90;;;;;;5140635;27;20825;-54
2021/10/01 03:40:04;;;;;;;3.73;2.43;;;9.70;99.90;;;;;;5141030;27;20455;-57
2021/10/01 03:42:33;;;;;;;3.80;2.33;;;9.70;99.90;;;;;;5140846;27;20523;-49
2021/10/01 03:45:00;;;;;;;7.33;2.57;;;9.70;99.90;;;;;;5140533;27;20459;-53
2021/10/01 03:47:27;;;;;;;5.10;2.30;;;9.80;99.90;;;;;;5140551;27;20462;-53
2021/10/01 03:49:54;;;;;;;2.50;2.00;;;9.80;99.90;;;;;;5140621;27;20776;-49
2021/10/01 03:52:21;;;;;;;4.53;2.77;;;9.90;99.90;;;;;;5140578;27;20463;-50
2021/10/01 03:54:50;;;;;;;4.10;1.97;;;9.90;99.90;;;;;;5140698;27;20458;-48
2021/10/01 03:57:17;;;;;;;5.43;3.00;;;10.00;99.90;;;;;;5139976;27;20511;-55
2021/10/01 03:59:46;;;;;;;5.43;2.40;;;10.00;99.90;;;;;;5140340;27;20834;-52
2021/10/01 04:02:13;;;;;;;4.17;2.13;;;10.00;99.90;;;;;;5140123;27;20482;-52
2021/10/01 04:04:40;;;;;;;3.33;2.60;;;10.00;99.90;;;;;;5140389;27;20462;-51
2021/10/01 04:07:07;;;;;;;4.40;2.37;;;10.00;99.90;;;;;;5139933;27;20459;-47
2021/10/01 04:09:34;;;;;;;5.13;2.40;;;9.90;99.90;;;;;;5139813;27;20490;-52
2021/10/01 04:12:01;;;;;;;5.97;3.33;;;9.90;99.90;;;;;;5140123;27;20482;-53
2021/10/01 04:14:28;;;;;;;20.47;14.60;;;9.80;99.90;;;;;;5140025;27;20458;-48
2021/10/01 04:16:56;;;;;;;5.00;4.30;;;9.80;99.90;;;;;;5139886;27;20555;-53
2021/10/01 04:19:24;;;;;;;5.93;5.37;;;9.80;99.90;;;;;;5139921;27;20523;-55
2021/10/01 04:21:50;;;;;;;8.77;5.00;;;9.90;99.90;;;;;;5140345;27;20473;-54
2021/10/01 04:24:17;;;;;;;16.70;10.83;;;9.90;99.90;;;;;;5139548;27;20512;-53
2021/10/01 04:26:45;;;;;;;9.37;5.70;;;9.90;99.90;;;;;;5139974;27;20433;-52
2021/10/01 04:29:12;;;;;;;4.53;3.10;;;9.90;99.90;;;;;;5139545;27;20960;-56
2021/10/01 04:31:39;;;;;;;5.70;4.27;;;9.80;99.90;;;;;;5139569;27;20548;-55
2021/10/01 04:34:08;;;;;;;8.80;3.70;;;9.90;99.90;;;;;;5139665;27;20458;-53
2021/10/01 04:36:35;;;;;;;6.97;5.20;;;9.90;99.90;;;;;;5139665;27;20458;-55
2021/10/01 04:39:03;;;;;;;9.13;5.20;;;9.90;99.90;;;;;;5139199;27;20508;-52
2021/10/01 04:41:31;;;;;;;3.53;3.23;;;9.90;99.90;;;;;;5139492;27;20463;-54
2021/10/01 04:43:58;;;;;;;4.33;3.03;;;9.80;99.90;;;;;;5139467;27;20942;-52
2021/10/01 04:46:25;;;;;;;4.57;2.90;;;9.80;99.90;;;;;;5139101;27;20523;-54
2021/10/01 04:48:55;;;;;;;7.50;2.80;;;9.80;99.90;;;;;;5138688;27;20490;-52
2021/10/01 04:51:24;;;;;;;3.83;2.47;;;9.80;99.90;;;;;;5139377;27;20562;-49
2021/10/01 04:53:51;;;;;;;7.77;3.30;;;9.90;99.90;;;;;;5139124;27;20498;-54
2021/10/01 04:56:21;;;;;;;4.80;2.70;;;9.90;99.90;;;;;;5139213;27;20937;-52
2021/10/01 04:58:51;;;;;;;4.00;2.70;;;9.90;99.90;;;;;;5138738;27;20458;-46
2021/10/01 05:01:18;;;;;;;5.70;3.40;;;9.90;99.90;;;;;;5137936;27;20846;-53
2021/10/01 05:03:45;;;;;;;6.47;2.87;;;9.90;99.90;;;;;;5138289;27;20511;-48
2021/10/01 05:06:12;;;;;;;5.43;3.10;;;9.90;99.90;;;;;;5138199;27;20455;-52
2021/10/01 05:08:40;;;;;;;6.27;2.83;;;9.90;99.90;;;;;;5138381;27;20518;-47
2021/10/01 05:11:07;;;;;;;7.10;2.97;;;9.90;99.90;;;;;;5122826;27;20462;-54
2021/10/01 05:13:34;;;;;;;4.23;3.00;;;10.00;99.90;;;;;;5118431;28;20456;-53
2021/10/01 05:16:03;;;;;;;6.90;2.87;;;10.00;99.90;;;;;;5118396;28;20560;-51
2021/10/01 05:18:30;;;;;;;5.20;2.33;;;9.90;99.90;;;;;;5118318;28;20886;-52
2021/10/01 05:21:02;;;;;;;6.50;3.73;;;9.90;99.90;;;;;;5118031;28;20464;-49
2021/10/01 05:23:30;;;;;;;4.30;2.50;;;9.90;99.90;;;;;;5118156;28;20463;-53
2021/10/01 05:25:58;;;;;;;5.23;2.57;;;9.90;99.90;;;;;;5118596;28;20558;-52
2021/10/01 05:28:25;;;;;;;4.73;2.40;;;10.00;99.90;;;;;;5136805;27;20558;-55
2021/10/01 05:30:56;;;;;;;3.70;2.10;;;10.00;99.90;;;;;;5138373;27;20462;-53
2021/10/01 05:33:23;;;;;;;4.20;2.37;;;10.00;99.90;;;;;;5138416;27;20948;-51
2021/10/01 05:35:53;;;;;;;5.40;2.80;;;9.90;99.90;;;;;;5138307;27;20458;-50
2021/10/01 05:38:20;;;;;;;5.53;2.80;;;10.00;99.90;;;;;;5118059;28;20451;-55
2021/10/01 05:40:46;;;;;;;9.00;5.13;;;10.00;99.90;;;;;;5117795;28;20464;-49
2021/10/01 05:43:23;;;;;;;11.87;8.10;;;10.00;99.90;;;;;;5117149;28;20438;-53
2021/10/01 05:45:54;;;;;;;20.77;10.60;;;10.00;99.90;;;;;;5117778;28;20491;-48
2021/10/01 05:48:23;;;;;;;21.60;11.20;;;10.00;99.90;;;;;;5117797;28;20570;-56
2021/10/01 05:50:54;;;;;;;19.60;10.33;;;10.00;99.90;;;;;;5117967;28;20460;-54
2021/10/01 05:53:46;;;;;;;19.27;9.20;;;10.00;99.90;;;;;;5116601;28;20520;-52
2021/10/01 05:56:14;;;;;;;14.80;7.20;;;10.00;99.90;;;;;;5116221;28;20493;-54
2021/10/01 05:58:43;;;;;;;6.33;5.03;;;10.00;99.90;;;;;;5117214;28;20756;-52
2021/10/01 06:01:12;;;;;;;15.67;9.60;;;10.00;99.90;;;;;;5117029;28;20491;-57
2021/10/01 06:03:39;;;;;;;5.00;2.90;;;10.10;99.90;;;;;;5116483;28;20546;-50
2021/10/01 06:06:06;;;;;;;3.23;2.80;;;10.10;99.90;;;;;;5117204;28;20508;-53
2021/10/01 06:08:33;;;;;;;5.83;3.40;;;10.10;99.90;;;;;;5117192;28;20518;-51
2021/10/01 06:11:00;;;;;;;3.23;2.60;;;10.10;99.90;;;;;;5130573;28;20429;-51
2021/10/01 06:13:28;;;;;;;4.30;3.00;;;10.10;99.90;;;;;;5137584;28;20535;-56
2021/10/01 06:15:56;;;;;;;6.07;2.87;;;10.20;99.90;;;;;;5137504;28;20779;-49
2021/10/01 06:18:26;;;;;;;6.30;2.50;;;10.20;99.90;;;;;;5138238;28;20551;-50
2021/10/01 06:20:53;;;;;;;4.37;3.00;;;10.30;99.90;;;;;;5137339;28;20512;-49
2021/10/01 06:23:22;;;;;;;6.10;3.23;;;10.40;99.90;;;;;;5137916;28;20788;-52
2021/10/01 06:25:49;;;;;;;4.53;2.83;;;10.40;99.90;;;;;;5137942;28;20810;-51
2021/10/01 06:28:16;;;;;;;4.47;2.77;;;10.50;99.90;;;;;;5137980;28;20916;-57
2021/10/01 06:30:43;;;;;;;3.50;2.50;;;10.50;99.90;;;;;;5138199;28;20493;-57
2021/10/01 06:33:13;;;;;;;7.20;3.30;;;10.60;99.90;;;;;;5137750;28;20458;-56
2021/10/01 06:35:40;;;;;;;7.00;2.57;;;10.70;99.90;;;;;;5138314;28;20454;-54
2021/10/01 06:38:11;;;;;;;3.70;2.70;;;10.80;99.90;;;;;;5139159;27;20900;-54
2021/10/01 06:40:38;;;;;;;2.50;2.27;;;10.90;99.90;;;;;;5142073;27;20818;-55
2021/10/01 06:43:08;;;;;;;5.97;3.50;;;11.10;99.90;;;;;;5142135;27;20520;-52
2021/10/01 06:45:37;;;;;;;8.00;4.83;;;11.20;99.90;;;;;;5141753;27;20466;-55
2021/10/01 06:48:16;;;;;;;7.27;2.87;;;11.40;99.90;;;;;;5142192;27;20462;-54
2021/10/01 07:21:39;;;;;;;3.10;1.80;;;13.10;99.90;;;;;;5118464;28;20426;-52
2021/10/01 08:19:25;;;;;;;5.80;2.10;;;14.90;99.90;;;;;;5139575;27;20438;-47
2021/10/01 08:21:55;;;;;;;6.73;2.50;;;15.00;99.90;;;;;;5139627;27;20545;-53
2021/10/01 08:24:25;;;;;;;3.10;2.13;;;15.30;99.90;;;;;;5139888;27;20523;-53
2021/10/01 08:26:52;;;;;;;4.67;2.87;;;15.40;99.90;;;;;;5139409;27;20912;-55
2021/10/01 08:29:27;;;;;;;4.03;2.37;;;15.60;99.90;;;;;;5139345;27;20490;-49
2021/10/01 08:32:00;;;;;;;6.50;2.50;;;15.60;99.90;;;;;;5139462;27;20433;-52
2021/10/01 08:34:28;;;;;;;3.83;2.00;;;16.00;99.90;;;;;;5139603;27;20470;-53
2021/10/01 08:36:55;;;;;;;3.83;2.23;;;16.20;99.90;;;;;;5139148;27;20491;-53
2021/10/01 08:39:22;;;;;;;2.53;2.30;;;16.30;99.90;;;;;;5139197;27;20458;-52
2021/10/01 08:41:52;;;;;;;3.23;2.30;;;16.30;99.90;;;;;;5139323;27;20494;-49
2021/10/01 08:44:26;;;;;;;5.90;2.30;;;16.40;99.90;;;;;;5139814;27;20522;-52
2021/10/01 08:46:56;;;;;;;2.80;2.50;;;16.50;99.90;;;;;;5139335;27;20804;-56
2021/10/01 08:49:28;;;;;;;6.60;2.53;;;16.30;99.90;;;;;;5139094;27;21021;-50
2021/10/01 08:51:55;;;;;;;3.93;2.50;;;16.20;99.90;;;;;;5138800;27;20486;-53
2021/10/01 08:54:23;;;;;;;3.27;2.60;;;16.30;99.90;;;;;;5138252;27;20462;-50
2021/10/01 08:56:50;;;;;;;2.57;2.10;;;16.40;99.90;;;;;;5137493;27;20577;-49
2021/10/01 08:59:17;;;;;;;4.63;2.30;;;16.90;99.90;;;;;;5137702;27;20488;-51
2021/10/01 09:01:46;;;;;;;3.50;2.20;;;17.40;99.90;;;;;;5136376;27;20490;-52
2021/10/01 09:04:13;;;;;;;5.90;2.50;;;17.50;99.90;;;;;;5137760;27;20498;-49
2021/10/01 09:06:40;;;;;;;5.30;2.80;;;17.70;99.90;;;;;;5138447;27;20462;-51
2021/10/01 09:09:09;;;;;;;3.30;2.20;;;17.80;99.90;;;;;;5138517;27;20925;-51
2021/10/01 09:11:45;;;;;;;3.10;2.10;;;17.50;99.90;;;;;;5138349;27;20467;-53
2021/10/01 09:14:13;;;;;;;4.00;2.10;;;17.30;99.90;;;;;;5137898;27;20450;-49
2021/10/01 09:16:46;;;;;;;3.70;2.90;;;16.90;99.90;;;;;;5136549;27;20885;-49
2021/10/01 09:19:20;;;;;;;2.70;2.10;;;17.00;99.90;;;;;;5137885;27;20439;-53
2021/10/01 09:21:50;;;;;;;3.97;2.40;;;17.30;99.90;;;;;;5135640;27;20511;-48
2021/10/01 09:24:22;;;;;;;5.47;2.70;;;17.60;99.90;;;;;;5138097;27;20515;-52
2021/10/01 09:26:51;;;;;;;2.40;2.00;;;17.80;99.90;;;;;;5136183;27;20451;-57
2021/10/01 09:29:27;;;;;;;2.67;2.13;;;17.90;99.90;;;;;;5137446;27;20542;-53
2021/10/01 09:31:56;;;;;;;2.77;2.10;;;18.10;99.90;;;;;;5137834;27;20454;-54
2021/10/01 09:34:37;;;;;;;2.90;1.90;;;18.10;99.90;;;;;;5137958;27;20885;-54
2021/10/01 09:37:11;;;;;;;3.07;2.13;;;18.00;99.90;;;;;;5135065;27;20461;-55
2021/10/01 09:39:42;;;;;;;3.10;2.47;;;17.70;99.90;;;;;;5137512;27;20489;-56
2021/10/01 09:42:12;;;;;;;3.60;2.30;;;18.10;99.90;;;;;;5137639;27;20456;-58
2021/10/01 09:44:49;;;;;;;5.30;2.30;;;18.20;99.90;;;;;;5137667;27;20490;-49
2021/10/01 09:47:18;;;;;;;2.60;2.10;;;18.30;99.90;;;;;;5136860;27;20494;-50
2021/10/01 09:49:56;;;;;;;3.73;2.43;;;18.20;99.90;;;;;;5132182;27;20506;-53
2021/10/01 09:52:23;;;;;;;3.43;2.10;;;18.30;99.90;;;;;;5137620;27;20503;-53
2021/10/01 09:54:51;;;;;;;6.70;2.47;;;18.50;99.90;;;;;;5137669;27;20454;-55
2021/10/01 09:57:18;;;;;;;4.20;2.40;;;18.50;99.90;;;;;;5137234;27;20458;-54
2021/10/01 09:59:46;;;;;;;5.33;2.30;;;18.60;99.90;;;;;;5134245;27;20459;-51
2021/10/01 10:02:14;;;;;;;2.93;2.30;;;18.50;99.90;;;;;;5135887;27;20529;-49
2021/10/01 10:04:45;;;;;;;4.90;2.87;;;18.20;99.90;;;;;;5136918;27;20454;-48
2021/10/01 10:07:20;;;;;;;2.63;2.40;;;18.50;99.90;;;;;;5136516;27;20455;-55
2021/10/01 10:09:54;;;;;;;5.23;2.10;;;18.90;99.90;;;;;;5133196;28;20522;-51
2021/10/01 10:12:36;;;;;;;2.80;2.33;;;18.60;99.90;;;;;;5132899;27;20543;-49
2021/10/01 10:15:09;;;;;;;4.30;2.90;;;18.80;99.90;;;;;;5132553;28;20439;-51
2021/10/01 10:17:45;;;;;;;3.27;2.00;;;18.80;99.90;;;;;;5135321;28;20483;-50
2021/10/01 10:20:12;;;;;;;4.80;2.70;;;18.80;99.90;;;;;;5136364;28;20474;-52
2021/10/01 10:22:40;;;;;;;3.70;2.57;;;19.00;99.90;;;;;;5135596;28;20953;-50
2021/10/01 10:25:08;;;;;;;3.70;2.20;;;19.00;99.90;;;;;;5135845;28;20490;-48
2021/10/01 10:27:38;;;;;;;4.50;2.90;;;19.20;99.90;;;;;;5136837;28;20483;-50
2021/10/01 10:30:07;;;;;;;4.03;2.80;;;19.30;99.90;;;;;;5136710;28;20478;-56
2021/10/01 10:32:34;;;;;;;3.97;2.70;;;19.40;99.90;;;;;;5136675;28;20865;-52
2021/10/01 10:35:04;;;;;;;5.90;3.17;;;19.00;99.90;;;;;;5136563;28;20471;-50
2021/10/01 10:37:39;;;;;;;2.60;1.90;;;18.90;99.90;;;;;;5136092;28;20724;-49
2021/10/01 10:40:12;;;;;;;3.57;2.20;;;18.80;99.90;;;;;;5134251;28;20450;-53
2021/10/01 10:42:42;;;;;;;3.17;2.00;;;18.90;99.90;;;;;;5137203;28;20509;-51
2021/10/01 10:45:24;;;;;;;4.50;3.00;;;19.00;99.90;;;;;;5137274;28;20447;-52
2021/10/01 10:47:54;;;;;;;4.70;2.67;;;19.30;99.90;;;;;;5134885;28;20889;-49
2021/10/01 10:50:46;;;;;;;3.20;2.60;;;19.20;99.90;;;;;;5137582;28;20588;-49
2021/10/01 10:53:26;;;;;;;3.13;2.30;;;19.30;99.90;;;;;;5137048;28;20461;-50
2021/10/01 10:55:57;;;;;;;6.13;2.67;;;19.10;99.90;;;;;;5137486;28;20772;-52
2021/10/01 10:58:45;;;;;;;2.37;1.97;;;19.20;99.90;;;;;;5137582;28;20802;-51
2021/10/01 11:01:41;;;;;;;3.90;2.90;;;19.30;99.90;;;;;;5136947;28;20485;-50
2021/10/01 11:07:48;;;;;;;4.27;2.43;;;19.70;99.90;;;;;;5137121;28;20446;-51
2021/10/01 11:10:35;;;;;;;3.50;2.50;;;20.00;99.90;;;;;;5137441;28;20486;-50
2021/10/01 11:13:33;;;;;;;7.57;2.60;;;20.20;99.90;;;;;;5137314;28;20516;-47
2021/10/01 11:16:24;;;;;;;2.97;2.70;;;19.90;99.90;;;;;;5073991;28;20458;-51
2021/10/01 11:19:10;;;;;;;2.40;2.20;;;19.50;99.90;;;;;;5130135;28;20490;-46
2021/10/01 11:21:42;;;;;;;3.10;2.27;;;19.50;99.90;;;;;;5134358;28;20872;-49
2021/10/01 11:24:11;;;;;;;2.80;2.27;;;19.70;99.90;;;;;;5136647;27;20446;-51
2021/10/01 11:26:41;;;;;;;2.73;2.53;;;20.00;99.90;;;;;;5139734;27;20534;-49
2021/10/01 11:29:24;;;;;;;5.17;2.17;;;20.10;99.90;;;;;;5140077;27;20499;-48
2021/10/01 11:31:52;;;;;;;4.30;2.13;;;19.90;99.90;;;;;;5138411;27;20451;-52
2021/10/01 11:34:19;;;;;;;3.47;2.33;;;19.90;99.90;;;;;;5138855;27;20519;-47
2021/10/01 11:36:46;;;;;;;3.10;2.50;;;19.80;99.90;;;;;;5138941;27;20908;-52
2021/10/01 11:39:16;;;;;;;6.00;2.33;;;20.20;99.90;;;;;;5138406;27;20467;-49
2021/10/01 11:41:47;;;;;;;3.63;2.50;;;19.90;99.90;;;;;;5139518;27;20463;-53
2021/10/01 11:44:18;;;;;;;3.90;2.20;;;19.70;99.90;;;;;;5132571;27;20759;-46
2021/10/01 11:46:49;;;;;;;2.93;2.40;;;19.20;99.90;;;;;;5140662;27;20462;-48
2021/10/01 11:49:19;;;;;;;5.10;2.50;;;19.00;99.90;;;;;;5140183;27;20489;-49
2021/10/01 11:52:02;;;;;;;2.83;2.23;;;19.10;99.90;;;;;;5138780;27;20543;-56
2021/10/01 11:54:32;;;;;;;2.80;2.23;;;19.40;99.90;;;;;;5140467;27;20791;-49
2021/10/01 11:57:03;;;;;;;3.03;2.00;;;19.50;99.90;;;;;;5140639;27;20889;-56
2021/10/01 11:59:54;;;;;;;3.83;2.60;;;19.70;99.90;;;;;;5140144;27;20522;-53
2021/10/01 12:02:40;;;;;;;3.20;2.73;;;19.60;99.90;;;;;;5140031;27;21009;-48
2021/10/01 12:05:31;;;;;;;3.37;2.27;;;19.90;99.90;;;;;;5139965;27;20454;-52
2021/10/01 12:08:00;;;;;;;6.47;2.20;;;20.00;99.90;;;;;;5140187;27;20554;-54
2021/10/01 12:10:29;;;;;;;5.10;2.53;;;20.60;99.90;;;;;;5140395;27;20835;-52
2021/10/01 12:13:05;;;;;;;3.77;2.63;;;20.70;99.90;;;;;;5139923;27;20908;-50
2021/10/01 12:15:46;;;;;;;2.70;2.43;;;20.60;99.90;;;;;;5139818;27;20526;-49
2021/10/01 12:18:33;;;;;;;2.57;2.37;;;20.20;99.90;;;;;;5140451;27;20454;-46
2021/10/01 12:21:07;;;;;;;5.13;2.13;;;20.40;99.90;;;;;;5139911;27;20455;-49
2021/10/01 12:23:36;;;;;;;3.40;2.30;;;20.30;99.90;;;;;;5139834;27;20463;-47
2021/10/01 12:26:24;;;;;;;4.50;2.43;;;20.50;99.90;;;;;;5140020;27;20458;-46
2021/10/01 12:29:00;;;;;;;4.43;2.53;;;20.30;99.90;;;;;;5139901;27;20466;-48
2021/10/01 12:31:30;;;;;;;3.00;2.43;;;19.70;99.90;;;;;;5139562;27;20559;-53
2021/10/01 12:34:02;;;;;;;4.20;2.70;;;19.70;99.90;;;;;;5139750;27;20539;-46
2021/10/01 12:36:30;;;;;;;3.20;2.10;;;20.00;99.90;;;;;;5139559;27;20470;-48
2021/10/01 12:39:01;;;;;;;3.43;2.30;;;20.30;99.90;;;;;;5139446;27;20462;-52
2021/10/01 12:41:33;;;;;;;3.53;2.40;;;19.40;99.90;;;;;;5139410;27;20455;-54
2021/10/01 12:44:02;;;;;;;5.23;2.50;;;19.20;99.90;;;;;;5139712;27;20459;-51
2021/10/01 12:46:40;;;;;;;3.17;2.23;;;19.60;99.90;;;;;;5139464;27;20893;-52
2021/10/01 12:49:34;;;;;;;3.33;2.43;;;20.20;99.90;;;;;;5139335;27;20503;-54
2021/10/01 12:52:12;;;;;;;4.27;2.00;;;20.10;99.90;;;;;;5090785;27;21005;-51
2021/10/01 12:54:50;;;;;;;3.40;2.13;;;19.30;99.90;;;;;;5139334;27;20565;-52
2021/10/01 12:57:38;;;;;;;2.17;1.97;;;18.80;99.90;;;;;;5138543;27;20469;-56
2021/10/01 13:00:16;;;;;;;4.93;2.20;;;18.60;99.90;;;;;;5131413;27;20976;-50
2021/10/01 13:02:51;;;;;;;4.00;1.97;;;19.00;99.90;;;;;;5126500;27;20483;-53
2021/10/01 13:05:21;;;;;;;4.33;2.50;;;19.50;99.90;;;;;;5119300;27;20438;-57
2021/10/01 13:07:50;;;;;;;3.77;2.23;;;19.90;99.90;;;;;;5118062;28;20438;-54
2021/10/01 13:10:28;;;;;;;2.90;2.10;;;19.80;99.90;;;;;;5117620;28;20541;-51
2021/10/01 13:13:01;;;;;;;2.53;2.10;;;20.00;99.90;;;;;;5118259;28;20460;-54
2021/10/01 13:15:44;;;;;;;4.20;2.10;;;19.80;99.90;;;;;;5124067;27;20486;-50
2021/10/01 13:18:30;;;;;;;3.10;2.47;;;19.30;99.90;;;;;;5138585;27;20458;-49
2021/10/01 13:21:09;;;;;;;2.60;2.40;;;19.30;99.90;;;;;;5139229;27;20950;-53
2021/10/01 13:23:42;;;;;;;2.70;2.20;;;19.40;99.90;;;;;;5138831;27;20555;-54
2021/10/01 13:26:17;;;;;;;2.60;2.40;;;19.50;99.90;;;;;;5138892;27;20733;-51
2021/10/01 13:28:48;;;;;;;4.63;2.53;;;19.30;99.90;;;;;;5138476;27;20458;-56
2021/10/01 13:31:15;;;;;;;4.83;2.40;;;19.30;99.90;;;;;;5138567;27;20491;-47
2021/10/01 13:33:45;;;;;;;2.20;1.70;;;19.20;99.90;;;;;;5137824;27;20515;-56
2021/10/01 13:36:13;;;;;;;2.53;2.17;;;19.30;99.90;;;;;;5138623;27;20509;-48
2021/10/01 13:38:42;;;;;;;2.90;2.10;;;19.30;99.90;;;;;;5138705;27;20459;-52
2021/10/01 13:41:10;;;;;;;3.37;2.37;;;19.60;99.90;;;;;;5137820;27;20464;-52
2021/10/01 13:43:39;;;;;;;2.60;1.90;;;19.50;99.90;;;;;;5138532;27;20462;-51
2021/10/01 13:46:07;;;;;;;3.63;2.57;;;19.40;99.90;;;;;;5137568;27;20515;-48
2021/10/01 13:48:35;;;;;;;3.90;2.30;;;19.70;99.90;;;;;;5138258;27;20522;-56
2021/10/01 13:51:06;;;;;;;2.97;1.97;;;19.60;99.90;;;;;;5138063;27;21004;-52
2021/10/01 13:53:33;;;;;;;3.23;2.20;;;19.60;99.90;;;;;;5137646;27;20466;-52
2021/10/01 13:56:06;;;;;;;2.20;2.00;;;19.50;99.90;;;;;;5137152;27;20459;-50
2021/10/01 13:58:37;;;;;;;4.20;2.27;;;19.50;99.90;;;;;;5137695;27;20454;-53
2021/10/01 14:01:04;;;;;;;3.37;1.90;;;19.50;99.90;;;;;;5137460;27;20482;-51
2021/10/01 14:03:34;;;;;;;4.20;2.10;;;19.50;99.90;;;;;;5138084;27;20811;-52
2021/10/01 14:06:02;;;;;;;3.03;2.60;;;19.10;99.90;;;;;;5137756;27;20463;-52
2021/10/01 14:08:30;;;;;;;2.50;2.13;;;19.00;99.90;;;;;;5138339;27;20455;-47
2021/10/01 14:10:57;;;;;;;2.90;2.50;;;19.00;99.90;;;;;;5123432;28;21014;-54
2021/10/01 14:13:33;;;;;;;3.00;2.73;;;18.60;99.90;;;;;;5117780;28;20512;-53
2021/10/01 14:16:00;;;;;;;4.80;2.70;;;18.50;99.90;;;;;;5125997;28;20910;-53
2021/10/01 14:18:29;;;;;;;3.13;2.37;;;18.40;99.90;;;;;;5138014;28;20515;-52
2021/10/01 14:20:56;;;;;;;4.40;2.67;;;18.40;99.90;;;;;;5136981;28;20465;-52
2021/10/01 14:23:27;;;;;;;5.63;2.73;;;18.40;99.90;;;;;;5137790;28;20454;-54
2021/10/01 14:25:55;;;;;;;4.43;3.07;;;18.30;99.90;;;;;;5137340;28;20465;-56
2021/10/01 14:28:22;;;;;;;4.40;3.20;;;18.30;99.90;;;;;;5137385;28;20458;-50
2021/10/01 14:30:49;;;;;;;7.33;4.33;;;18.30;99.90;;;;;;5137260;28;20486;-51
2021/10/01 14:33:16;;;;;;;5.80;4.77;;;18.30;99.90;;;;;;5138199;28;20511;-48
2021/10/01 14:35:43;;;;;;;3.43;3.00;;;18.30;99.90;;;;;;5137346;28;20511;-53
2021/10/01 14:38:11;;;;;;;5.67;3.57;;;18.10;99.90;;;;;;5136275;28;20458;-49